sensor_id;sensor_type;location;lat;lon;timestamp;pressure;altitude;pressure_sealevel;temperature;humidity
81812;BME280;71243;51.848;5.768;2023-08-07T00:00:28;101309.66;;;14.40;81.82
81812;BME280;71243;51.848;5.768;2023-08-07T00:02:53;101318.78;;;14.38;82.43
81812;BME280;71243;51.848;5.768;2023-08-07T00:05:18;101320.63;;;14.37;82.22
81812;BME280;71243;51.848;5.768;2023-08-07T00:07:43;101317.31;;;14.35;82.13
81812;BME280;71243;51.848;5.768;2023-08-07T00:10:09;101324.59;;;14.33;82.75
81812;BME280;71243;51.848;5.768;2023-08-07T00:12:35;101319.78;;;14.28;83.49
81812;BME280;71243;51.848;5.768;2023-08-07T00:15:01;101327.34;;;14.23;83.70
81812;BME280;71243;51.848;5.768;2023-08-07T00:17:27;101320.22;;;14.24;84.31
81812;BME280;71243;51.848;5.768;2023-08-07T00:19:52;101329.34;;;14.21;84.80
81812;BME280;71243;51.848;5.768;2023-08-07T00:22:17;101321.00;;;14.16;85.59
81812;BME280;71243;51.848;5.768;2023-08-07T00:24:43;101321.22;;;14.23;85.18
81812;BME280;71243;51.848;5.768;2023-08-07T00:27:08;101329.34;;;14.21;85.71
81812;BME280;71243;51.848;5.768;2023-08-07T00:29:33;101319.91;;;14.27;85.30
81812;BME280;71243;51.848;5.768;2023-08-07T00:31:58;101319.53;;;14.22;85.64
81812;BME280;71243;51.848;5.768;2023-08-07T00:34:24;101326.19;;;14.18;85.83
81812;BME280;71243;51.848;5.768;2023-08-07T00:36:49;101320.50;;;14.13;86.26
81812;BME280;71243;51.848;5.768;2023-08-07T00:39:14;101329.47;;;14.12;85.98
81812;BME280;71243;51.848;5.768;2023-08-07T00:41:40;101322.63;;;14.09;85.45
81812;BME280;71243;51.848;5.768;2023-08-07T00:44:05;101324.16;;;14.12;85.75
81812;BME280;71243;51.848;5.768;2023-08-07T00:46:30;101324.94;;;14.04;86.44
81812;BME280;71243;51.848;5.768;2023-08-07T00:48:56;101330.56;;;14.01;86.56
81812;BME280;71243;51.848;5.768;2023-08-07T00:51:22;101323.28;;;14.03;86.32
81812;BME280;71243;51.848;5.768;2023-08-07T00:53:48;101324.59;;;14.07;86.44
81812;BME280;71243;51.848;5.768;2023-08-07T00:56:14;101337.69;;;14.01;86.63
81812;BME280;71243;51.848;5.768;2023-08-07T00:58:40;101327.91;;;14.01;86.81
81812;BME280;71243;51.848;5.768;2023-08-07T01:01:06;101333.56;;;13.98;86.76
81812;BME280;71243;51.848;5.768;2023-08-07T01:03:31;101339.50;;;13.92;87.09
81812;BME280;71243;51.848;5.768;2023-08-07T01:05:57;101335.69;;;13.95;87.21
81812;BME280;71243;51.848;5.768;2023-08-07T01:08:23;101348.66;;;13.98;86.82
81812;BME280;71243;51.848;5.768;2023-08-07T01:13:35;101348.66;;;13.98;86.90
81812;BME280;71243;51.848;5.768;2023-08-07T01:16:07;101351.00;;;14.01;87.16
81812;BME280;71243;51.848;5.768;2023-08-07T01:18:36;101354.50;;;14.01;86.99
81812;BME280;71243;51.848;5.768;2023-08-07T01:21:03;101349.38;;;14.08;87.18
81812;BME280;71243;51.848;5.768;2023-08-07T01:23:28;101355.19;;;14.11;86.52
81812;BME280;71243;51.848;5.768;2023-08-07T01:25:54;101352.53;;;14.11;86.60
81812;BME280;71243;51.848;5.768;2023-08-07T01:30:54;101347.72;;;14.07;86.76
81812;BME280;71243;51.848;5.768;2023-08-07T01:33:31;101348.41;;;14.09;86.40
81812;BME280;71243;51.848;5.768;2023-08-07T01:36:00;101352.69;;;14.10;86.57
81812;BME280;71243;51.848;5.768;2023-08-07T01:38:26;101358.19;;;14.08;86.48
81812;BME280;71243;51.848;5.768;2023-08-07T01:40:52;101352.03;;;14.08;86.40
81812;BME280;71243;51.848;5.768;2023-08-07T01:43:18;101346.38;;;14.11;86.23
81812;BME280;71243;51.848;5.768;2023-08-07T01:45:44;101349.19;;;14.09;85.68
81812;BME280;71243;51.848;5.768;2023-08-07T01:48:09;101356.19;;;14.10;85.72
81812;BME280;71243;51.848;5.768;2023-08-07T01:50:34;101351.06;;;14.09;85.19
81812;BME280;71243;51.848;5.768;2023-08-07T01:53:00;101346.38;;;14.11;85.03
81812;BME280;71243;51.848;5.768;2023-08-07T01:55:25;101353.03;;;14.07;84.82
81812;BME280;71243;51.848;5.768;2023-08-07T01:57:50;101345.88;;;14.07;84.42
81812;BME280;71243;51.848;5.768;2023-08-07T02:00:16;101345.88;;;14.07;84.28
81812;BME280;71243;51.848;5.768;2023-08-07T02:02:41;101355.19;;;14.11;83.56
81812;BME280;71243;51.848;5.768;2023-08-07T02:05:07;101364.34;;;14.09;84.26
81812;BME280;71243;51.848;5.768;2023-08-07T02:07:32;101366.47;;;14.05;83.69
81812;BME280;71243;51.848;5.768;2023-08-07T02:09:57;101370.00;;;14.14;83.53
81812;BME280;71243;51.848;5.768;2023-08-07T02:12:23;101374.63;;;14.12;83.37
81812;BME280;71243;51.848;5.768;2023-08-07T02:14:48;101370.00;;;14.14;83.15
81812;BME280;71243;51.848;5.768;2023-08-07T02:17:14;101370.16;;;14.12;83.08
81812;BME280;71243;51.848;5.768;2023-08-07T02:19:39;101367.50;;;14.12;83.14
81812;BME280;71243;51.848;5.768;2023-08-07T02:22:05;101368.47;;;14.11;83.30
81812;BME280;71243;51.848;5.768;2023-08-07T02:24:30;101367.00;;;14.09;83.24
81812;BME280;71243;51.848;5.768;2023-08-07T02:26:55;101368.97;;;14.07;83.59
81812;BME280;71243;51.848;5.768;2023-08-07T02:29:20;101375.25;;;14.06;83.71
81812;BME280;71243;51.848;5.768;2023-08-07T02:31:46;101377.88;;;13.98;83.49
81812;BME280;71243;51.848;5.768;2023-08-07T02:34:11;101371.88;;;13.96;83.93
81812;BME280;71243;51.848;5.768;2023-08-07T02:36:36;101370.28;;;14.03;83.52
81812;BME280;71243;51.848;5.768;2023-08-07T02:39:02;101368.63;;;14.02;83.82
81812;BME280;71243;51.848;5.768;2023-08-07T02:41:28;101374.91;;;14.01;83.90
81812;BME280;71243;51.848;5.768;2023-08-07T02:43:53;101373.94;;;14.02;83.82
81812;BME280;71243;51.848;5.768;2023-08-07T02:46:19;101374.28;;;14.07;83.30
81812;BME280;71243;51.848;5.768;2023-08-07T02:48:44;101375.78;;;14.09;83.75
81812;BME280;71243;51.848;5.768;2023-08-07T02:51:09;101378.06;;;14.04;83.90
81812;BME280;71243;51.848;5.768;2023-08-07T02:53:35;101372.41;;;13.99;84.09
81812;BME280;71243;51.848;5.768;2023-08-07T02:56:00;101372.41;;;13.99;84.04
81812;BME280;71243;51.848;5.768;2023-08-07T02:58:25;101374.28;;;14.07;83.29
81812;BME280;71243;51.848;5.768;2023-08-07T03:00:51;101380.56;;;14.06;83.32
81812;BME280;71243;51.848;5.768;2023-08-07T03:03:16;101368.13;;;14.06;83.70
81812;BME280;71243;51.848;5.768;2023-08-07T03:05:51;101369.66;;;14.09;83.14
81812;BME280;71243;51.848;5.768;2023-08-07T03:08:17;101372.31;;;14.09;83.43
81812;BME280;71243;51.848;5.768;2023-08-07T03:10:42;101374.81;;;14.10;83.00
81812;BME280;71243;51.848;5.768;2023-08-07T03:13:14;101368.97;;;14.07;82.88
81812;BME280;71243;51.848;5.768;2023-08-07T03:15:39;101371.31;;;14.10;82.86
81812;BME280;71243;51.848;5.768;2023-08-07T03:18:04;101370.84;;;14.14;82.20
81812;BME280;71243;51.848;5.768;2023-08-07T03:20:29;101366.50;;;14.13;82.54
81812;BME280;71243;51.848;5.768;2023-08-07T03:22:55;101364.47;;;14.07;82.96
81812;BME280;71243;51.848;5.768;2023-08-07T03:25:20;101359.84;;;14.09;82.83
81812;BME280;71243;51.848;5.768;2023-08-07T03:27:45;101364.69;;;14.14;82.40
81812;BME280;71243;51.848;5.768;2023-08-07T03:30:11;101361.34;;;14.12;82.82
81812;BME280;71243;51.848;5.768;2023-08-07T03:32:36;101355.34;;;14.10;82.62
81812;BME280;71243;51.848;5.768;2023-08-07T03:35:01;101355.88;;;14.13;82.13
81812;BME280;71243;51.848;5.768;2023-08-07T03:37:26;101357.69;;;14.13;82.42
81812;BME280;71243;51.848;5.768;2023-08-07T03:39:52;101358.22;;;14.16;82.49
81812;BME280;71243;51.848;5.768;2023-08-07T03:42:17;101371.88;;;14.21;81.90
81812;BME280;71243;51.848;5.768;2023-08-07T03:44:42;101365.53;;;14.14;82.03
81812;BME280;71243;51.848;5.768;2023-08-07T03:47:07;101373.63;;;14.13;81.96
81812;BME280;71243;51.848;5.768;2023-08-07T03:49:33;101368.81;;;14.08;82.65
81812;BME280;71243;51.848;5.768;2023-08-07T03:51:58;101381.56;;;14.05;83.67
81812;BME280;71243;51.848;5.768;2023-08-07T03:54:23;101376.25;;;14.05;84.22
81812;BME280;71243;51.848;5.768;2023-08-07T03:56:49;101374.38;;;13.97;84.17
81812;BME280;71243;51.848;5.768;2023-08-07T03:59:14;101368.91;;;13.99;84.53
81812;BME280;71243;51.848;5.768;2023-08-07T04:01:39;101376.06;;;13.98;84.89
81812;BME280;71243;51.848;5.768;2023-08-07T04:04:04;101374.53;;;13.96;85.22
81812;BME280;71243;51.848;5.768;2023-08-07T04:06:30;101367.94;;;14.00;85.09
81812;BME280;71243;51.848;5.768;2023-08-07T04:08:55;101365.78;;;14.03;85.14
81812;BME280;71243;51.848;5.768;2023-08-07T04:11:20;101369.22;;;13.96;85.58
81812;BME280;71243;51.848;5.768;2023-08-07T04:13:45;101364.09;;;13.94;85.36
81812;BME280;71243;51.848;5.768;2023-08-07T04:16:11;101370.38;;;13.93;85.61
81812;BME280;71243;51.848;5.768;2023-08-07T04:18:36;101360.91;;;13.91;85.92
81812;BME280;71243;51.848;5.768;2023-08-07T04:21:01;101364.09;;;13.94;85.84
81812;BME280;71243;51.848;5.768;2023-08-07T04:23:27;101374.03;;;13.92;85.69
81812;BME280;71243;51.848;5.768;2023-08-07T04:25:52;101364.53;;;13.90;86.39
81812;BME280;71243;51.848;5.768;2023-08-07T04:28:18;101368.09;;;13.98;86.01
81812;BME280;71243;51.848;5.768;2023-08-07T04:30:44;101371.56;;;13.99;86.12
81812;BME280;71243;51.848;5.768;2023-08-07T04:33:10;101371.56;;;13.99;86.08
81812;BME280;71243;51.848;5.768;2023-08-07T04:35:35;101363.75;;;13.97;86.30
81812;BME280;71243;51.848;5.768;2023-08-07T04:38:01;101377.72;;;13.99;86.05
81812;BME280;71243;51.848;5.768;2023-08-07T04:40:26;101387.50;;;13.99;85.97
81812;BME280;71243;51.848;5.768;2023-08-07T04:42:51;101383.34;;;13.96;85.96
81812;BME280;71243;51.848;5.768;2023-08-07T04:45:17;101389.03;;;14.01;86.14
81812;BME280;71243;51.848;5.768;2023-08-07T04:47:42;101384.41;;;14.03;86.42
81812;BME280;71243;51.848;5.768;2023-08-07T04:50:08;101385.53;;;14.01;86.50
81812;BME280;71243;51.848;5.768;2023-08-07T04:52:34;101378.72;;;13.98;86.17
81812;BME280;71243;51.848;5.768;2023-08-07T04:54:59;101388.34;;;13.99;86.41
81812;BME280;71243;51.848;5.768;2023-08-07T04:57:24;101389.88;;;14.02;85.95
81812;BME280;71243;51.848;5.768;2023-08-07T04:59:51;101386.00;;;13.96;86.54
81812;BME280;71243;51.848;5.768;2023-08-07T05:02:16;101399.81;;;14.00;86.59
81812;BME280;71243;51.848;5.768;2023-08-07T05:04:42;101402.31;;;14.01;86.29
81812;BME280;71243;51.848;5.768;2023-08-07T05:07:07;101400.34;;;14.03;85.76
81812;BME280;71243;51.848;5.768;2023-08-07T05:09:33;101406.63;;;14.02;86.23
81812;BME280;71243;51.848;5.768;2023-08-07T05:11:58;101402.13;;;13.95;86.36
81812;BME280;71243;51.848;5.768;2023-08-07T05:14:23;101405.81;;;14.02;86.40
81812;BME280;71243;51.848;5.768;2023-08-07T05:16:48;101410.44;;;14.00;86.53
81812;BME280;71243;51.848;5.768;2023-08-07T05:19:14;101415.59;;;14.01;86.21
81812;BME280;71243;51.848;5.768;2023-08-07T05:21:39;101423.72;;;14.00;86.54
81812;BME280;71243;51.848;5.768;2023-08-07T05:24:04;101420.59;;;14.04;86.36
81812;BME280;71243;51.848;5.768;2023-08-07T05:26:29;101431.56;;;14.09;86.29
81812;BME280;71243;51.848;5.768;2023-08-07T05:28:55;101429.09;;;14.08;86.61
81812;BME280;71243;51.848;5.768;2023-08-07T05:31:20;101423.56;;;14.01;86.95
81812;BME280;71243;51.848;5.768;2023-08-07T05:33:45;101430.91;;;14.07;87.04
81812;BME280;71243;51.848;5.768;2023-08-07T05:36:11;101422.13;;;14.07;86.92
81812;BME280;71243;51.848;5.768;2023-08-07T05:38:36;101439.09;;;14.14;86.58
81812;BME280;71243;51.848;5.768;2023-08-07T05:41:01;101440.22;;;14.11;87.19
81812;BME280;71243;51.848;5.768;2023-08-07T05:43:26;101444.25;;;14.15;86.86
81812;BME280;71243;51.848;5.768;2023-08-07T05:45:52;101440.06;;;14.13;86.82
81812;BME280;71243;51.848;5.768;2023-08-07T05:48:17;101449.41;;;14.17;87.06
81812;BME280;71243;51.848;5.768;2023-08-07T05:50:42;101451.91;;;14.18;87.16
81812;BME280;71243;51.848;5.768;2023-08-07T05:53:08;101458.06;;;14.19;87.02
81812;BME280;71243;51.848;5.768;2023-08-07T05:55:34;101455.56;;;14.17;87.35
81812;BME280;71243;51.848;5.768;2023-08-07T05:57:59;101452.22;;;14.15;87.46
81812;BME280;71243;51.848;5.768;2023-08-07T06:00:24;101463.38;;;14.19;87.65
81812;BME280;71243;51.848;5.768;2023-08-07T06:02:50;101463.56;;;14.25;87.36
81812;BME280;71243;51.848;5.768;2023-08-07T06:05:15;101461.25;;;14.22;87.35
81812;BME280;71243;51.848;5.768;2023-08-07T06:07:40;101478.59;;;14.26;87.22
81812;BME280;71243;51.848;5.768;2023-08-07T06:10:06;101473.31;;;14.17;88.07
81812;BME280;71243;51.848;5.768;2023-08-07T06:12:31;101470.63;;;14.26;87.51
81812;BME280;71243;51.848;5.768;2023-08-07T06:14:56;101477.88;;;14.24;87.51
81812;BME280;71243;51.848;5.768;2023-08-07T06:17:22;101478.03;;;14.23;86.83
81812;BME280;71243;51.848;5.768;2023-08-07T06:19:47;101479.00;;;14.22;87.18
81812;BME280;71243;51.848;5.768;2023-08-07T06:22:12;101484.84;;;14.25;86.94
81812;BME280;71243;51.848;5.768;2023-08-07T06:24:37;101487.09;;;14.30;86.58
81812;BME280;71243;51.848;5.768;2023-08-07T06:27:03;101490.94;;;14.36;86.52
81812;BME280;71243;51.848;5.768;2023-08-07T06:29:28;101483.63;;;14.38;86.41
81812;BME280;71243;51.848;5.768;2023-08-07T06:31:53;101490.09;;;14.35;86.51
81812;BME280;71243;51.848;5.768;2023-08-07T06:34:19;101489.63;;;14.40;86.39
81812;BME280;71243;51.848;5.768;2023-08-07T06:36:44;101484.63;;;14.37;86.64
81812;BME280;71243;51.848;5.768;2023-08-07T06:39:09;101486.41;;;14.28;86.50
81812;BME280;71243;51.848;5.768;2023-08-07T06:41:35;101494.91;;;14.32;86.22
81812;BME280;71243;51.848;5.768;2023-08-07T06:44:01;101497.91;;;14.37;86.50
81812;BME280;71243;51.848;5.768;2023-08-07T06:46:26;101501.25;;;14.39;86.01
81812;BME280;71243;51.848;5.768;2023-08-07T06:48:51;101496.63;;;14.41;86.29
81812;BME280;71243;51.848;5.768;2023-08-07T06:51:17;101500.78;;;14.43;86.34
81812;BME280;71243;51.848;5.768;2023-08-07T06:53:42;101509.25;;;14.47;85.86
81812;BME280;71243;51.848;5.768;2023-08-07T06:56:07;101513.81;;;14.54;85.49
81812;BME280;71243;51.848;5.768;2023-08-07T06:58:32;101507.19;;;14.58;85.31
81812;BME280;71243;51.848;5.768;2023-08-07T07:00:57;101507.72;;;14.62;85.70
81812;BME280;71243;51.848;5.768;2023-08-07T07:03:23;101512.88;;;14.63;85.81
81812;BME280;71243;51.848;5.768;2023-08-07T07:05:49;101511.59;;;14.75;85.24
81812;BME280;71243;51.848;5.768;2023-08-07T07:08:14;101523.06;;;14.76;85.32
81812;BME280;71243;51.848;5.768;2023-08-07T07:10:40;101517.44;;;14.79;84.97
81812;BME280;71243;51.848;5.768;2023-08-07T07:13:05;101519.59;;;14.83;84.90
81812;BME280;71243;51.848;5.768;2023-08-07T07:15:30;101520.78;;;14.89;84.95
81812;BME280;71243;51.848;5.768;2023-08-07T07:17:55;101526.69;;;15.00;85.10
81812;BME280;71243;51.848;5.768;2023-08-07T07:20:20;101534.19;;;15.05;84.92
81812;BME280;71243;51.848;5.768;2023-08-07T07:22:46;101527.03;;;15.05;85.36
81812;BME280;71243;51.848;5.768;2023-08-07T07:25:11;101533.06;;;15.15;84.90
81812;BME280;71243;51.848;5.768;2023-08-07T07:27:37;101538.88;;;15.19;84.62
81812;BME280;71243;51.848;5.768;2023-08-07T07:30:03;101542.84;;;15.15;83.99
81812;BME280;71243;51.848;5.768;2023-08-07T07:32:28;101547.88;;;15.18;84.53
81812;BME280;71243;51.848;5.768;2023-08-07T07:34:53;101551.34;;;15.18;84.12
81812;BME280;71243;51.848;5.768;2023-08-07T07:37:19;101559.03;;;15.21;83.91
81812;BME280;71243;51.848;5.768;2023-08-07T07:39:44;101560.56;;;15.32;83.42
81812;BME280;71243;51.848;5.768;2023-08-07T07:42:09;101565.41;;;15.36;83.79
81812;BME280;71243;51.848;5.768;2023-08-07T07:44:34;101562.56;;;15.38;83.74
81812;BME280;71243;51.848;5.768;2023-08-07T07:46:59;101568.63;;;15.40;83.55
81812;BME280;71243;51.848;5.768;2023-08-07T07:49:25;101578.13;;;15.43;83.71
81812;BME280;71243;51.848;5.768;2023-08-07T07:51:50;101571.94;;;15.42;83.81
81812;BME280;71243;51.848;5.768;2023-08-07T07:54:15;101578.13;;;15.43;83.86
81812;BME280;71243;51.848;5.768;2023-08-07T07:56:42;101578.88;;;15.35;84.09
81812;BME280;71243;51.848;5.768;2023-08-07T07:59:07;101593.22;;;15.34;84.49
81812;BME280;71243;51.848;5.768;2023-08-07T08:01:32;101602.41;;;15.06;83.70
81812;BME280;71243;51.848;5.768;2023-08-07T08:03:58;101605.75;;;14.82;82.76
81812;BME280;71243;51.848;5.768;2023-08-07T08:06:23;101597.94;;;14.81;82.42
81812;BME280;71243;51.848;5.768;2023-08-07T08:08:48;101600.00;;;14.69;83.59
81812;BME280;71243;51.848;5.768;2023-08-07T08:11:13;101597.22;;;14.71;83.78
81812;BME280;71243;51.848;5.768;2023-08-07T08:13:39;101598.50;;;14.67;83.53
81812;BME280;71243;51.848;5.768;2023-08-07T08:16:04;101600.84;;;14.70;83.70
81812;BME280;71243;51.848;5.768;2023-08-07T08:18:30;101610.19;;;14.74;84.30
81812;BME280;71243;51.848;5.768;2023-08-07T08:20:55;101600.22;;;14.76;84.63
81812;BME280;71243;51.848;5.768;2023-08-07T08:23:21;101614.56;;;14.83;85.10
81812;BME280;71243;51.848;5.768;2023-08-07T08:25:46;101614.44;;;14.92;86.04
81812;BME280;71243;51.848;5.768;2023-08-07T08:28:11;101612.72;;;15.09;86.14
81812;BME280;71243;51.848;5.768;2023-08-07T08:30:36;101617.13;;;15.26;87.09
81812;BME280;71243;51.848;5.768;2023-08-07T08:33:02;101616.44;;;15.50;86.30
81812;BME280;71243;51.848;5.768;2023-08-07T08:35:27;101612.47;;;15.70;85.47
81812;BME280;71243;51.848;5.768;2023-08-07T08:37:52;101612.00;;;15.74;84.96
81812;BME280;71243;51.848;5.768;2023-08-07T08:40:17;101608.69;;;15.80;83.89
81812;BME280;71243;51.848;5.768;2023-08-07T08:42:43;101622.03;;;15.88;84.56
81812;BME280;71243;51.848;5.768;2023-08-07T08:45:09;101603.22;;;15.98;84.01
81812;BME280;71243;51.848;5.768;2023-08-07T08:47:36;101621.56;;;16.01;81.53
81812;BME280;71243;51.848;5.768;2023-08-07T08:50:04;101617.75;;;16.11;81.20
81812;BME280;71243;51.848;5.768;2023-08-07T08:52:32;101616.06;;;16.10;81.56
81812;BME280;71243;51.848;5.768;2023-08-07T08:54:57;101609.75;;;16.19;81.21
81812;BME280;71243;51.848;5.768;2023-08-07T08:57:24;101615.91;;;16.20;80.35
81812;BME280;71243;51.848;5.768;2023-08-07T08:59:50;101611.44;;;16.20;79.30
81812;BME280;71243;51.848;5.768;2023-08-07T09:02:17;101612.56;;;16.18;80.05
81812;BME280;71243;51.848;5.768;2023-08-07T09:04:44;101620.06;;;16.14;78.06
81812;BME280;71243;51.848;5.768;2023-08-07T09:07:10;101630.06;;;16.12;74.88
81812;BME280;71243;51.848;5.768;2023-08-07T09:09:35;101640.22;;;16.09;76.05
81812;BME280;71243;51.848;5.768;2023-08-07T09:12:02;101636.72;;;16.00;75.37
81812;BME280;71243;51.848;5.768;2023-08-07T09:14:30;101643.66;;;15.77;77.07
81812;BME280;71243;51.848;5.768;2023-08-07T09:17:00;101644.50;;;15.78;79.05
81812;BME280;71243;51.848;5.768;2023-08-07T09:19:26;101648.19;;;15.93;79.25
81812;BME280;71243;51.848;5.768;2023-08-07T09:21:51;101642.56;;;16.04;81.06
81812;BME280;71243;51.848;5.768;2023-08-07T09:24:17;101640.59;;;16.22;79.81
81812;BME280;71243;51.848;5.768;2023-08-07T09:26:42;101644.75;;;16.32;79.78
81812;BME280;71243;51.848;5.768;2023-08-07T09:29:08;101651.91;;;16.40;80.09
81812;BME280;71243;51.848;5.768;2023-08-07T09:31:36;101644.94;;;16.47;79.31
81812;BME280;71243;51.848;5.768;2023-08-07T09:34:02;101644.63;;;16.66;79.43
81812;BME280;71243;51.848;5.768;2023-08-07T09:36:30;101653.44;;;16.67;77.30
81812;BME280;71243;51.848;5.768;2023-08-07T09:38:55;101656.78;;;16.77;77.07
81812;BME280;71243;51.848;5.768;2023-08-07T09:41:21;101656.63;;;16.78;76.92
81812;BME280;71243;51.848;5.768;2023-08-07T09:43:46;101656.31;;;16.73;76.01
81812;BME280;71243;51.848;5.768;2023-08-07T09:46:12;101664.97;;;16.67;74.00
81812;BME280;71243;51.848;5.768;2023-08-07T09:48:41;101677.97;;;16.70;75.02
81812;BME280;71243;51.848;5.768;2023-08-07T09:51:07;101674.97;;;16.65;75.12
81812;BME280;71243;51.848;5.768;2023-08-07T09:53:32;101682.78;;;16.42;73.25
81812;BME280;71243;51.848;5.768;2023-08-07T09:55:58;101681.31;;;16.48;72.99
81812;BME280;71243;51.848;5.768;2023-08-07T09:58:24;101683.13;;;16.48;72.37
81812;BME280;71243;51.848;5.768;2023-08-07T10:00:50;101679.63;;;16.63;72.41
81812;BME280;71243;51.848;5.768;2023-08-07T10:03:16;101681.00;;;16.59;69.61
81812;BME280;71243;51.848;5.768;2023-08-07T10:05:42;101678.97;;;16.61;71.29
81812;BME280;71243;51.848;5.768;2023-08-07T10:08:08;101690.00;;;16.66;71.54
81812;BME280;71243;51.848;5.768;2023-08-07T10:10:37;101691.16;;;16.80;71.66
81812;BME280;71243;51.848;5.768;2023-08-07T10:13:02;101681.97;;;16.74;71.46
81812;BME280;71243;51.848;5.768;2023-08-07T10:15:31;101692.66;;;16.66;71.97
81812;BME280;71243;51.848;5.768;2023-08-07T10:17:57;101693.00;;;16.71;72.96
81812;BME280;71243;51.848;5.768;2023-08-07T10:20:24;101699.16;;;16.80;73.82
81812;BME280;71243;51.848;5.768;2023-08-07T10:22:52;101692.16;;;16.87;72.40
81812;BME280;71243;51.848;5.768;2023-08-07T10:25:20;101692.28;;;17.09;71.72
81812;BME280;71243;51.848;5.768;2023-08-07T10:27:48;101692.06;;;17.35;68.94
81812;BME280;71243;51.848;5.768;2023-08-07T10:30:16;101706.41;;;17.50;68.63
81812;BME280;71243;51.848;5.768;2023-08-07T10:32:44;101691.22;;;17.50;66.47
81812;BME280;71243;51.848;5.768;2023-08-07T10:35:23;101687.69;;;17.42;66.89
81812;BME280;71243;51.848;5.768;2023-08-07T10:37:50;101686.84;;;17.41;66.46
81812;BME280;71243;51.848;5.768;2023-08-07T10:40:16;101694.25;;;17.31;66.46
81812;BME280;71243;51.848;5.768;2023-08-07T10:45:20;101705.56;;;17.41;66.03
81812;BME280;71243;51.848;5.768;2023-08-07T10:48:03;101701.72;;;17.52;65.69
81812;BME280;71243;51.848;5.768;2023-08-07T10:50:35;101706.03;;;17.61;65.36
81812;BME280;71243;51.848;5.768;2023-08-07T10:53:18;101707.00;;;17.68;65.74
81812;BME280;71243;51.848;5.768;2023-08-07T10:55:47;101697.97;;;17.69;66.21
81812;BME280;71243;51.848;5.768;2023-08-07T10:58:51;101701.66;;;17.68;65.95
81812;BME280;71243;51.848;5.768;2023-08-07T11:01:39;101716.00;;;17.67;66.37
81812;BME280;71243;51.848;5.768;2023-08-07T11:04:07;101730.41;;;17.58;67.60
81812;BME280;71243;51.848;5.768;2023-08-07T11:06:36;101740.47;;;17.32;68.70
81812;BME280;71243;51.848;5.768;2023-08-07T11:09:04;101741.16;;;17.18;69.60
81812;BME280;71243;51.848;5.768;2023-08-07T11:11:35;101737.19;;;17.14;70.26
81812;BME280;71243;51.848;5.768;2023-08-07T11:14:01;101744.00;;;17.16;69.64
81812;BME280;71243;51.848;5.768;2023-08-07T11:16:27;101738.66;;;17.24;69.04
81812;BME280;71243;51.848;5.768;2023-08-07T11:18:53;101742.66;;;17.36;68.33
81812;BME280;71243;51.848;5.768;2023-08-07T11:21:18;101729.28;;;17.52;68.35
81812;BME280;71243;51.848;5.768;2023-08-07T11:23:43;101725.00;;;17.74;66.82
81812;BME280;71243;51.848;5.768;2023-08-07T11:26:09;101725.88;;;18.05;66.35
81812;BME280;71243;51.848;5.768;2023-08-07T11:28:34;101732.06;;;18.36;66.77
81812;BME280;71243;51.848;5.768;2023-08-07T11:31:00;101723.47;;;18.49;64.39
81812;BME280;71243;51.848;5.768;2023-08-07T11:33:27;101728.75;;;18.57;63.12
81812;BME280;71243;51.848;5.768;2023-08-07T11:35:53;101718.34;;;18.62;62.33
81812;BME280;71243;51.848;5.768;2023-08-07T11:38:34;101720.50;;;18.67;62.68
81812;BME280;71243;51.848;5.768;2023-08-07T11:41:01;101725.19;;;18.65;63.14
81812;BME280;71243;51.848;5.768;2023-08-07T11:43:27;101727.22;;;18.63;61.19
81812;BME280;71243;51.848;5.768;2023-08-07T11:45:53;101736.75;;;18.65;61.27
81812;BME280;71243;51.848;5.768;2023-08-07T11:48:19;101732.63;;;18.54;61.24
81812;BME280;71243;51.848;5.768;2023-08-07T11:50:44;101740.66;;;18.54;59.93
81812;BME280;71243;51.848;5.768;2023-08-07T11:53:10;101734.47;;;18.54;60.46
81812;BME280;71243;51.848;5.768;2023-08-07T11:55:35;101734.28;;;18.55;60.30
81812;BME280;71243;51.848;5.768;2023-08-07T11:58:03;101735.06;;;18.64;60.71
81812;BME280;71243;51.848;5.768;2023-08-07T12:00:28;101735.34;;;18.69;61.05
81812;BME280;71243;51.848;5.768;2023-08-07T12:02:54;101741.50;;;18.78;62.10
81812;BME280;71243;51.848;5.768;2023-08-07T12:05:19;101727.38;;;18.84;59.03
81812;BME280;71243;51.848;5.768;2023-08-07T12:07:44;101724.31;;;18.87;58.53
81812;BME280;71243;51.848;5.768;2023-08-07T12:10:10;101719.28;;;18.69;59.16
81812;BME280;71243;51.848;5.768;2023-08-07T12:12:36;101731.69;;;18.70;58.92
81812;BME280;71243;51.848;5.768;2023-08-07T12:15:02;101742.72;;;18.44;59.90
81812;BME280;71243;51.848;5.768;2023-08-07T12:17:31;101738.75;;;18.40;62.08
81812;BME280;71243;51.848;5.768;2023-08-07T12:19:57;101738.53;;;18.19;62.55
81812;BME280;71243;51.848;5.768;2023-08-07T12:22:23;101740.44;;;18.33;63.76
81812;BME280;71243;51.848;5.768;2023-08-07T12:24:48;101739.72;;;18.47;62.72
81812;BME280;71243;51.848;5.768;2023-08-07T12:27:13;101747.44;;;18.65;63.04
81812;BME280;71243;51.848;5.768;2023-08-07T12:29:38;101737.31;;;18.75;63.25
81812;BME280;71243;51.848;5.768;2023-08-07T12:32:04;101739.09;;;18.83;62.61
81812;BME280;71243;51.848;5.768;2023-08-07T12:34:29;101739.22;;;18.89;61.76
81812;BME280;71243;51.848;5.768;2023-08-07T12:36:54;101730.06;;;18.84;61.32
81812;BME280;71243;51.848;5.768;2023-08-07T12:39:20;101734.75;;;18.82;60.70
81812;BME280;71243;51.848;5.768;2023-08-07T12:41:45;101736.78;;;18.57;61.02
81812;BME280;71243;51.848;5.768;2023-08-07T12:44:10;101744.69;;;18.50;61.84
81812;BME280;71243;51.848;5.768;2023-08-07T12:46:35;101752.38;;;18.53;62.29
81812;BME280;71243;51.848;5.768;2023-08-07T12:49:01;101742.97;;;18.57;62.00
81812;BME280;71243;51.848;5.768;2023-08-07T12:51:26;101739.94;;;18.60;62.03